< < Back
Terminal Aerodrome Forecast


Current Version              Previous Versions:   1  2  3  4  5  6  7  8  9  

Terminal Aerodrome Forecast

137
FTUS42 KGSP 220200 AAA
TAFCLT
TAF AMD
KCLT 220204Z 2202/2224 08006KT P6SM BKN014 OVC020
      TEMPO 2203/2204 BKN008 OVC014
     FM220700 06004KT 5SM BR VCSH OVC004
     FM221300 06004KT P6SM OVC007
     FM221600 06004KT P6SM BKN025 PROB30 2219/2224 4SM TSRA
      OVC015CB=

Latest METAR

450
SAUS70 KWBC 221500 RRA
MTRCLT
METAR KCLT 221452Z 05006KT 10SM OVC009 24/21 A3019 RMK AO2 SLP213
T02440211 50005


USA.gov is the U.S. government's official web portal to all federal, state and local government web resources and services.